Time;durP1;ratioP1;P1;durP2;ratioP2;P2;SDS_P1;SDS_P2;PMS_P1;PMS_P2;Temp;Humidity;BMP_temperature;BMP_pressure;BME280_temperature;BME280_humidity;BME280_pressure;Samples;Min_cycle;Max_cycle;Signal;HPM_P1;HPM_P2
2023/04/07 00:00:21;;;;;;;1999.90;999.90;;;;;;;5.02;100.00;95323.31;5063975;28;20181;-76
2023/04/07 00:02:47;;;;;;;1999.90;999.90;;;;;;;5.02;100.00;95336.03;5064174;28;20170;-76
2023/04/07 00:05:13;;;;;;;1999.90;999.90;;;;;;;5.04;100.00;95322.94;5063699;28;20169;-76
2023/04/07 00:07:38;;;;;;;1999.90;999.90;;;;;;;5.01;100.00;95320.97;5063729;28;20177;-76
2023/04/07 00:10:04;;;;;;;1999.90;999.90;;;;;;;5.01;100.00;95323.66;5063968;28;20179;-76
2023/04/07 00:12:30;;;;;;;1999.90;999.90;;;;;;;5.00;100.00;95327.53;5064170;28;20220;-75
2023/04/07 00:14:55;;;;;;;1999.90;999.90;;;;;;;4.97;100.00;95318.22;5063589;28;20194;-76
2023/04/07 00:17:20;;;;;;;1999.90;999.90;;;;;;;5.01;100.00;95320.97;5063648;28;20170;-76
2023/04/07 00:19:46;;;;;;;1999.90;999.90;;;;;;;5.03;100.00;95324.09;5063311;28;20172;-75
2023/04/07 00:22:11;;;;;;;1999.90;999.90;;;;;;;5.01;100.00;95320.97;5064049;28;20170;-75
2023/04/07 00:24:37;;;;;;;1999.90;999.90;;;;;;;5.06;100.00;95320.66;5063493;28;20166;-76
2023/04/07 00:27:02;;;;;;;1999.90;999.90;;;;;;;5.06;100.00;95320.66;5063670;28;20234;-76
2023/04/07 00:29:27;;;;;;;1999.90;999.90;;;;;;;5.09;100.00;95314.47;5064028;28;20162;-76
2023/04/07 00:31:53;;;;;;;1999.90;999.90;;;;;;;5.12;100.00;95316.44;5063978;28;20172;-76
2023/04/07 00:34:18;;;;;;;1999.90;999.90;;;;;;;5.13;100.00;95315.31;5064000;28;20173;-76
2023/04/07 00:36:48;;;;;;;1999.90;999.90;;;;;;;5.09;100.00;95317.97;5063708;28;20172;-76
2023/04/07 00:39:14;;;;;;;1999.90;999.90;;;;;;;5.09;100.00;95319.88;5062988;28;20177;-76
2023/04/07 00:41:39;;;;;;;1999.90;999.90;;;;;;;5.10;100.00;95308.69;5063224;28;20170;-76
2023/04/07 00:44:04;;;;;;;1999.90;999.90;;;;;;;5.11;100.00;95317.59;5063913;28;20174;-76
2023/04/07 00:46:30;;;;;;;1999.90;999.90;;;;;;;5.16;100.00;95314.56;5063606;28;20167;-76
2023/04/07 00:49:07;;;;;;;1999.90;999.90;;;;;;;5.11;100.00;95302.16;5063255;28;20166;-76
2023/04/07 00:51:33;;;;;;;1999.90;999.90;;;;;;;5.14;100.00;95311.47;5067554;28;20170;-75
2023/04/07 00:53:59;;;;;;;1999.90;999.90;;;;;;;5.14;100.00;95303.34;5067075;28;20229;-75
2023/04/07 00:56:26;;;;;;;1999.90;999.90;;;;;;;5.18;100.00;95296.03;5067600;28;20177;-76
2023/04/07 00:58:51;;;;;;;1999.90;999.90;;;;;;;5.18;100.00;95294.13;5067185;28;20174;-75
2023/04/07 01:01:52;;;;;;;1999.90;999.90;;;;;;;5.18;100.00;95290.63;5067602;28;20166;-75
2023/04/07 01:04:32;;;;;;;1999.90;999.90;;;;;;;5.24;100.00;95291.84;5045672;28;20201;-73
2023/04/07 01:07:08;;;;;;;1999.90;999.90;;;;;;;5.25;100.00;95291.47;5067052;28;20211;-74
2023/04/07 01:09:50;;;;;;;1999.90;999.90;;;;;;;5.28;100.00;95289.97;5067191;28;20170;-74
2023/04/07 01:12:33;;;;;;;1999.90;999.90;;;;;;;5.28;100.00;95287.25;5067345;28;20194;-74
2023/04/07 01:15:06;;;;;;;1999.90;999.90;;;;;;;5.27;100.00;95285.69;5067369;28;20166;-77
2023/04/07 01:17:35;;;;;;;1999.90;999.90;;;;;;;5.29;100.00;95281.47;5067059;28;20343;-78
2023/04/07 01:20:07;;;;;;;1999.90;999.90;;;;;;;5.29;100.00;95286.09;5067147;28;20171;-76
2023/04/07 01:23:00;;;;;;;1999.90;999.90;;;;;;;5.31;100.00;95279.16;5067245;28;20293;-77
2023/04/07 01:25:47;;;;;;;1999.90;999.90;;;;;;;5.34;100.00;95283.03;5047810;28;20179;-77
2023/04/07 01:28:32;;;;;;;1999.90;999.90;;;;;;;5.36;100.00;95286.16;5067081;28;20237;-76
2023/04/07 01:31:00;;;;;;;1999.90;999.90;;;;;;;5.35;100.00;95279.22;5066251;28;20256;-76
2023/04/07 01:33:31;;;;;;;1999.90;999.90;;;;;;;5.35;100.00;95271.09;5066825;28;20201;-77
2023/04/07 01:35:58;;;;;;;1999.90;999.90;;;;;;;5.34;100.00;95273.00;5066984;28;20201;-75
2023/04/07 01:38:25;;;;;;;1999.90;999.90;;;;;;;5.37;100.00;95272.25;5066653;28;20163;-75
2023/04/07 01:40:52;;;;;;;1999.90;999.90;;;;;;;5.41;100.00;95272.28;5066933;28;20167;-76
2023/04/07 01:43:18;;;;;;;1999.90;999.90;;;;;;;5.44;100.00;95276.97;5066783;28;20161;-76
2023/04/07 01:45:44;;;;;;;1999.90;999.90;;;;;;;5.45;100.00;95273.09;5066410;28;20209;-75
2023/04/07 01:48:11;;;;;;;1999.90;999.90;;;;;;;5.47;100.00;95276.22;5066161;28;20171;-75
2023/04/07 01:50:37;;;;;;;1999.90;999.90;;;;;;;5.48;100.00;95281.25;5066233;28;20202;-76
2023/04/07 01:53:04;;;;;;;1999.90;999.90;;;;;;;5.50;100.00;95275.47;5066709;28;20191;-75
2023/04/07 01:55:30;;;;;;;1999.90;999.90;;;;;;;5.51;100.00;95277.03;5065992;28;20266;-76
2023/04/07 01:57:55;;;;;;;1999.90;999.90;;;;;;;5.50;100.00;95270.06;5066112;28;20242;-76
2023/04/07 02:00:22;;;;;;;1999.90;999.90;;;;;;;5.45;100.00;95273.88;5066030;28;20172;-75
2023/04/07 02:02:54;;;;;;;1999.90;999.90;;;;;;;5.43;100.00;95267.28;5085305;28;20250;-75
2023/04/07 02:05:21;;;;;;;1999.90;999.90;;;;;;;5.44;100.00;95266.13;5068886;28;20188;-75
2023/04/07 02:07:56;;;;;;;1999.90;999.90;;;;;;;5.42;100.00;95269.22;5068640;28;20212;-75
2023/04/07 02:10:25;;;;;;;1999.90;999.90;;;;;;;5.42;100.00;95263.00;5068397;28;20173;-75
2023/04/07 02:12:51;;;;;;;1999.90;999.90;;;;;;;5.46;100.00;95263.84;5068903;28;20203;-75
2023/04/07 02:15:18;;;;;;;1999.90;999.90;;;;;;;5.44;100.00;95261.50;5068446;28;20249;-76
2023/04/07 02:17:48;;;;;;;1999.90;999.90;;;;;;;5.48;100.00;95264.22;5068703;28;20186;-75
2023/04/07 02:20:15;;;;;;;1999.90;999.90;;;;;;;5.56;100.00;95265.84;5068810;28;20254;-76
2023/04/07 02:22:41;;;;;;;1999.90;999.90;;;;;;;5.59;100.00;95262.38;5068202;28;20183;-76
2023/04/07 02:25:26;;;;;;;1999.90;999.90;;;;;;;5.62;100.00;95250.81;5068184;28;20217;-74
2023/04/07 02:27:52;;;;;;;1999.90;999.90;;;;;;;5.68;100.00;95254.75;5085319;28;20179;-76
2023/04/07 02:30:18;;;;;;;1999.90;999.90;;;;;;;5.71;100.00;95259.38;5068190;28;20293;-75
2023/04/07 02:32:44;;;;;;;1999.90;999.90;;;;;;;5.77;100.00;95252.47;5066887;28;20202;-76
2023/04/07 02:35:10;;;;;;;1999.90;999.90;;;;;;;5.84;100.00;95247.16;5065417;28;20172;-76
2023/04/07 02:37:36;;;;;;;1999.90;999.90;;;;;;;5.92;100.00;95254.16;5065877;28;20164;-76
2023/04/07 02:40:02;;;;;;;1999.90;999.90;;;;;;;5.95;100.00;95243.38;5065437;28;20173;-76
2023/04/07 02:42:28;;;;;;;1999.90;999.90;;;;;;;5.98;100.00;95244.53;5065261;28;20203;-77
2023/04/07 02:44:53;;;;;;;1999.90;999.90;;;;;;;6.05;100.00;95241.88;5065721;28;20170;-76
2023/04/07 02:47:18;;;;;;;1999.90;999.90;;;;;;;6.11;100.00;95251.19;5065435;28;20168;-76
2023/04/07 02:49:44;;;;;;;1999.90;999.90;;;;;;;6.12;100.00;95252.75;5065122;28;20204;-76
2023/04/07 02:52:09;;;;;;;1999.90;999.90;;;;;;;6.14;100.00;95255.84;5065537;28;20273;-75
2023/04/07 02:54:35;;;;;;;1999.90;999.90;;;;;;;6.19;100.00;95259.00;5065152;28;20191;-76
2023/04/07 02:57:00;;;;;;;1999.90;999.90;;;;;;;6.20;100.00;95254.34;5065244;28;20163;-76
2023/04/07 02:59:26;;;;;;;1999.90;999.90;;;;;;;6.19;100.00;95255.50;5064987;28;20167;-75
2023/04/07 03:01:51;;;;;;;1999.90;999.90;;;;;;;6.20;100.00;95259.78;5065416;28;20170;-76
2023/04/07 03:04:16;;;;;;;1999.90;999.90;;;;;;;6.20;100.00;95263.25;5064863;28;20170;-75
2023/04/07 03:06:42;;;;;;;1999.90;999.90;;;;;;;6.18;100.00;95262.88;5065058;28;20175;-76
2023/04/07 03:09:07;;;;;;;1999.90;999.90;;;;;;;6.21;100.00;95264.81;5064730;28;20169;-76
2023/04/07 03:11:32;;;;;;;1999.90;999.90;;;;;;;6.21;100.00;95261.31;5064855;28;20165;-76
2023/04/07 03:13:58;;;;;;;1999.90;999.90;;;;;;;6.16;100.00;95259.75;5063759;28;20250;-73
2023/04/07 03:16:23;;;;;;;1999.90;999.90;;;;;;;6.13;100.00;95262.44;5065166;28;20168;-74
2023/04/07 03:18:48;;;;;;;1999.90;999.90;;;;;;;6.12;100.00;95250.06;5064459;28;20173;-74
2023/04/07 03:21:14;;;;;;;1999.90;999.90;;;;;;;6.13;100.00;95248.88;5065030;28;20169;-74
2023/04/07 03:23:39;;;;;;;1999.90;999.90;;;;;;;6.12;100.00;95260.91;5064820;28;20202;-73
2023/04/07 03:26:05;;;;;;;1999.90;999.90;;;;;;;6.11;100.00;95253.91;5064945;28;20202;-75
2023/04/07 03:28:31;;;;;;;1999.90;999.90;;;;;;;6.09;100.00;95253.50;5064766;28;20252;-75
2023/04/07 03:30:56;;;;;;;1999.90;999.90;;;;;;;6.02;100.00;95246.09;5064389;28;20224;-75
2023/04/07 03:33:21;;;;;;;1999.90;999.90;;;;;;;5.97;100.00;95256.50;5064436;28;20200;-75
2023/04/07 03:35:47;;;;;;;1999.90;999.90;;;;;;;5.95;100.00;95237.16;5064350;28;20164;-75
2023/04/07 03:38:12;;;;;;;1999.90;999.90;;;;;;;5.92;100.00;95243.31;5064322;28;20178;-76
2023/04/07 03:40:37;;;;;;;1999.90;999.90;;;;;;;5.86;100.00;95239.41;5064144;28;20174;-76
2023/04/07 03:43:03;;;;;;;1999.90;999.90;;;;;;;5.83;100.00;95242.88;5064063;28;20172;-75
2023/04/07 03:45:28;;;;;;;1999.90;999.90;;;;;;;5.76;100.00;95240.09;5064338;28;20169;-75
2023/04/07 03:47:53;;;;;;;1999.90;999.90;;;;;;;5.71;100.00;95233.09;5064216;28;20251;-75
2023/04/07 03:50:19;;;;;;;1999.90;999.90;;;;;;;5.72;100.00;95233.88;5064619;28;20171;-73
2023/04/07 03:52:44;;;;;;;1999.90;999.90;;;;;;;5.67;100.00;95239.63;5064630;28;20204;-73
2023/04/07 03:55:10;;;;;;;1999.90;999.90;;;;;;;5.68;100.00;95233.06;5063556;28;20196;-74
2023/04/07 03:57:35;;;;;;;1999.90;999.90;;;;;;;5.69;100.00;95229.19;5064448;28;20173;-74
2023/04/07 04:00:01;;;;;;;1999.90;999.90;;;;;;;5.68;100.00;95233.06;5063920;28;20175;-74
2023/04/07 04:02:27;;;;;;;1999.90;999.90;;;;;;;5.59;100.00;95236.09;5064636;28;20246;-75
2023/04/07 04:04:52;;;;;;;1999.90;999.90;;;;;;;5.60;100.00;95226.03;5064625;28;20312;-74
2023/04/07 04:07:17;;;;;;;1999.90;999.90;;;;;;;5.60;100.00;95231.44;5063844;28;20247;-74
2023/04/07 04:09:43;;;;;;;1999.90;999.90;;;;;;;5.58;100.00;95222.94;5064293;28;20171;-76
2023/04/07 04:12:08;;;;;;;1999.90;999.90;;;;;;;5.55;100.00;95223.66;5063651;28;20175;-71
2023/04/07 04:14:34;;;;;;;1999.90;999.90;;;;;;;5.57;100.00;95222.13;5064219;28;20172;-73
2023/04/07 04:16:59;;;;;;;1999.90;999.90;;;;;;;5.56;100.00;95225.22;5064309;28;20175;-73
2023/04/07 04:19:25;;;;;;;1999.90;999.90;;;;;;;5.52;100.00;95219.00;5064097;28;20167;-72
2023/04/07 04:21:51;;;;;;;1999.90;999.90;;;;;;;5.50;100.00;95221.31;5063429;28;20172;-75
2023/04/07 04:24:16;;;;;;;1999.90;999.90;;;;;;;5.53;100.00;95220.53;5063673;28;20171;-74
2023/04/07 04:26:41;;;;;;;1999.90;999.90;;;;;;;5.54;100.00;95222.13;5067885;28;20421;-73
2023/04/07 04:29:07;;;;;;;1999.90;999.90;;;;;;;5.51;100.00;95222.88;5068093;28;20215;-74
2023/04/07 04:31:32;;;;;;;1999.90;999.90;;;;;;;5.51;100.00;95225.56;5067374;28;20329;-76
2023/04/07 04:33:57;;;;;;;1999.90;999.90;;;;;;;5.51;100.00;95217.44;5067754;28;20195;-72
2023/04/07 04:36:23;;;;;;;1999.90;999.90;;;;;;;5.55;100.00;95213.63;5067671;28;20166;-73
2023/04/07 04:38:48;;;;;;;1999.90;999.90;;;;;;;5.56;100.00;95219.81;5067890;28;20169;-72
2023/04/07 04:41:14;;;;;;;1999.90;999.90;;;;;;;5.58;100.00;95210.16;5068187;28;20196;-74
2023/04/07 04:43:40;;;;;;;1999.90;999.90;;;;;;;5.58;100.00;95220.22;5067433;28;20288;-75
2023/04/07 04:46:05;;;;;;;1999.90;999.90;;;;;;;5.57;100.00;95229.50;5067419;28;20180;-74
2023/04/07 04:48:31;;;;;;;1999.90;999.90;;;;;;;5.51;100.00;95217.44;5067176;28;20190;-75
2023/04/07 04:50:56;;;;;;;1999.90;999.90;;;;;;;5.54;100.00;95214.75;5067500;28;20168;-76
2023/04/07 04:53:21;;;;;;;1999.90;999.90;;;;;;;5.51;100.00;95214.75;5067228;28;20197;-77
2023/04/07 04:55:50;;;;;;;1999.90;999.90;;;;;;;5.49;100.00;95215.13;5067590;28;20168;-77
2023/04/07 04:58:17;;;;;;;1999.90;999.90;;;;;;;5.56;100.00;95225.22;5067830;28;20174;-74
2023/04/07 05:00:42;;;;;;;1999.90;999.90;;;;;;;5.57;100.00;95215.97;5067334;28;20275;-72
2023/04/07 05:03:07;;;;;;;1999.90;999.90;;;;;;;5.56;100.00;95214.38;5067146;28;20186;-75
2023/04/07 05:05:33;;;;;;;1999.90;999.90;;;;;;;5.57;100.00;95213.25;5067108;28;20168;-77
2023/04/07 05:07:58;;;;;;;1999.90;999.90;;;;;;;5.58;100.00;95218.28;5067065;28;20168;-74
2023/04/07 05:10:23;;;;;;;1999.90;999.90;;;;;;;5.53;100.00;95204.31;5067093;28;20171;-74
2023/04/07 05:12:49;;;;;;;1999.90;999.90;;;;;;;5.55;100.00;95210.91;5066896;28;20187;-74
2023/04/07 05:15:15;;;;;;;1999.90;999.90;;;;;;;5.54;100.00;95206.63;5067716;28;20179;-73
2023/04/07 05:17:43;;;;;;;1999.90;999.90;;;;;;;5.55;100.00;95207.44;5067067;28;20256;-77
2023/04/07 05:20:09;;;;;;;1999.90;999.90;;;;;;;5.58;100.00;95209.38;5067410;28;20168;-72
2023/04/07 05:22:35;;;;;;;1999.90;999.90;;;;;;;5.56;100.00;95211.69;5067254;28;20202;-76
2023/04/07 05:25:00;;;;;;;1999.90;999.90;;;;;;;5.58;100.00;95206.69;5067252;28;20173;-77
2023/04/07 05:27:26;;;;;;;1999.90;999.90;;;;;;;5.50;100.00;95202.38;5066638;28;20168;-77
2023/04/07 05:29:51;;;;;;;1999.90;999.90;;;;;;;5.53;100.00;95204.31;5066573;28;20279;-76
2023/04/07 05:32:18;;;;;;;1999.90;999.90;;;;;;;5.54;100.00;95189.63;5067040;28;20198;-76
2023/04/07 05:34:43;;;;;;;1999.90;999.90;;;;;;;5.53;100.00;95198.88;5066654;28;20191;-77
2023/04/07 05:37:09;;;;;;;1999.90;999.90;;;;;;;5.53;100.00;95202.38;5066036;28;20168;-72
2023/04/07 05:39:34;;;;;;;1999.90;999.90;;;;;;;5.53;100.00;95193.47;5067124;28;20195;-79
2023/04/07 05:42:01;;;;;;;1999.90;999.90;;;;;;;5.53;100.00;95193.47;5067275;28;20173;-73
2023/04/07 05:44:26;;;;;;;1999.90;999.90;;;;;;;5.58;100.00;95188.47;5067916;28;20175;-79
2023/04/07 05:46:51;;;;;;;1999.90;999.90;;;;;;;5.59;100.00;95197.41;5066934;28;20168;-79
2023/04/07 05:49:17;;;;;;;1999.90;999.90;;;;;;;5.62;100.00;95185.81;5067045;28;20173;-79
2023/04/07 05:51:42;;;;;;;1999.90;999.90;;;;;;;5.69;100.00;95191.28;5066495;28;20172;-79
2023/04/07 05:54:07;;;;;;;1999.90;999.90;;;;;;;5.69;100.00;95191.28;5066650;28;20217;-79
2023/04/07 05:56:33;;;;;;;1999.90;999.90;;;;;;;5.80;100.00;95192.88;5066673;28;20247;-80
2023/04/07 05:58:59;;;;;;;1999.90;999.90;;;;;;;5.96;100.00;95187.22;5066172;28;20176;-79
2023/04/07 06:01:24;;;;;;;1999.90;999.90;;;;;;;6.07;100.00;95185.34;5066130;28;20169;-79
2023/04/07 06:03:50;;;;;;;1999.90;999.90;;;;;;;6.24;100.00;95190.09;5065934;28;20180;-79
2023/04/07 06:06:15;;;;;;;1999.90;999.90;;;;;;;6.26;100.00;95187.75;5065970;28;20180;-78
2023/04/07 06:08:41;;;;;;;1999.90;999.90;;;;;;;6.32;100.00;95188.97;5066242;28;20200;-78
2023/04/07 06:11:06;;;;;;;1999.90;999.90;;;;;;;6.24;100.00;95196.28;5066636;28;20172;-79
2023/04/07 06:13:31;;;;;;;1999.90;999.90;;;;;;;6.27;100.00;95187.38;5065696;28;20203;-79
2023/04/07 06:15:57;;;;;;;1999.90;999.90;;;;;;;6.24;100.00;95190.84;5066334;28;20173;-77
2023/04/07 06:18:22;;;;;;;1999.90;999.90;;;;;;;6.25;100.00;95191.63;5065815;28;20162;-78
2023/04/07 06:20:48;;;;;;;1999.90;999.90;;;;;;;6.16;100.00;95189.25;5066580;28;20279;-77
2023/04/07 06:23:13;;;;;;;1999.90;999.90;;;;;;;6.06;100.00;95183.78;5065946;28;20195;-78
2023/04/07 06:25:38;;;;;;;1999.90;999.90;;;;;;;6.11;100.00;95184.22;5065936;28;20161;-79
2023/04/07 06:28:04;;;;;;;1999.90;999.90;;;;;;;6.25;100.00;95180.78;5065920;28;20165;-76
2023/04/07 06:30:29;;;;;;;1999.90;999.90;;;;;;;6.37;100.00;95189.38;5065549;28;20223;-77
2023/04/07 06:32:55;;;;;;;1999.90;999.90;;;;;;;6.36;100.00;95176.19;5065992;28;20271;-77
2023/04/07 06:35:20;;;;;;;1999.90;999.90;;;;;;;6.28;100.00;95172.69;5066109;28;20169;-77
2023/04/07 06:37:46;;;;;;;1999.90;999.90;;;;;;;6.33;100.00;95171.53;5065812;28;20196;-78
2023/04/07 06:40:11;;;;;;;1999.90;999.90;;;;;;;6.39;100.00;95170.00;5065346;28;20243;-77
2023/04/07 06:42:36;;;;;;;1999.90;999.90;;;;;;;6.56;100.00;95169.31;5065548;28;20170;-77
2023/04/07 06:45:02;;;;;;;1999.90;999.90;;;;;;;6.71;100.00;95170.91;5065797;28;20169;-78
2023/04/07 06:47:28;;;;;;;1999.90;999.90;;;;;;;6.84;100.00;95174.78;5064409;28;20168;-78
2023/04/07 06:49:53;;;;;;;1999.90;999.90;;;;;;;6.65;100.00;95173.22;5065625;28;20241;-78
2023/04/07 06:52:18;;;;;;;1999.90;999.90;;;;;;;6.80;100.00;95174.81;5065054;28;20197;-79
2023/04/07 06:54:44;;;;;;;1999.90;999.90;;;;;;;6.85;100.00;95170.94;5065335;28;20268;-75
2023/04/07 06:57:11;;;;;;;1999.90;999.90;;;;;;;6.91;100.00;95163.94;5065123;28;20165;-79
2023/04/07 06:59:39;;;;;;;1999.90;999.90;;;;;;;7.05;100.00;95163.97;5065512;28;20177;-78
2023/04/07 07:02:06;;;;;;;1999.90;999.90;;;;;;;7.25;100.00;95167.88;5065078;28;20169;-79
2023/04/07 07:04:32;;;;;;;1999.90;999.90;;;;;;;7.28;100.00;95166.34;5065442;28;20252;-78
2023/04/07 07:06:58;;;;;;;1999.90;999.90;;;;;;;7.20;100.00;95159.31;5064981;28;20173;-78
2023/04/07 07:09:23;;;;;;;1999.90;999.90;;;;;;;7.46;100.00;95173.31;5065031;28;20187;-79
2023/04/07 07:11:48;;;;;;;1999.90;999.90;;;;;;;7.55;100.00;95165.56;5065120;28;20174;-79
2023/04/07 07:14:14;;;;;;;1999.90;999.90;;;;;;;7.55;100.00;95164.78;5065380;28;20232;-78
2023/04/07 07:16:40;;;;;;;1999.90;999.90;;;;;;;7.81;100.00;95165.16;5064516;28;20193;-76
2023/04/07 07:19:05;;;;;;;1999.90;999.90;;;;;;;8.10;100.00;95174.81;5065069;28;20205;-76
2023/04/07 07:21:31;;;;;;;1999.90;999.90;;;;;;;7.99;100.00;95179.50;5064661;28;20166;-77
2023/04/07 07:23:56;;;;;;;1999.90;999.90;;;;;;;8.19;100.00;95171.69;5065218;28;20235;-76
2023/04/07 07:26:22;;;;;;;1999.90;999.90;;;;;;;8.17;100.00;95174.78;5065032;28;20173;-77
2023/04/07 07:28:47;;;;;;;1999.90;999.90;;;;;;;8.16;100.00;95183.34;5064600;28;20169;-77
2023/04/07 07:31:13;;;;;;;1999.90;999.90;;;;;;;7.90;100.00;95181.81;5064320;28;20260;-77
2023/04/07 07:33:40;;;;;;;1999.90;999.90;;;;;;;8.10;100.00;95184.88;5064274;28;20201;-78
2023/04/07 07:36:07;;;;;;;1999.90;999.90;;;;;;;8.16;100.00;95181.38;5064298;28;20193;-78
2023/04/07 07:38:33;;;;;;;1999.90;999.90;;;;;;;8.09;100.00;95173.22;5064273;28;20173;-78
2023/04/07 07:40:58;;;;;;;1999.90;999.90;;;;;;;8.29;100.00;95171.66;5064018;28;20182;-78
2023/04/07 07:43:23;;;;;;;1999.90;999.90;;;;;;;8.34;100.00;95171.25;5064115;28;20181;-78
2023/04/07 07:45:49;;;;;;;1999.90;999.90;;;;;;;8.66;100.00;95169.19;5064454;28;20208;-77
2023/04/07 07:48:14;;;;;;;1999.90;999.90;;;;;;;8.61;100.00;95176.97;5064260;28;20176;-78
2023/04/07 07:50:39;;;;;;;1999.90;999.90;;;;;;;8.81;100.00;95173.38;5064368;28;20174;-79
2023/04/07 07:53:05;;;;;;;1999.90;999.90;;;;;;;8.85;100.00;95176.84;5063762;28;20224;-77
2023/04/07 07:55:30;;;;;;;1999.90;999.90;;;;;;;8.92;100.00;95174.09;5064317;28;20190;-79
2023/04/07 07:57:55;;;;;;;1999.90;999.90;;;;;;;9.17;100.00;95177.44;5064715;28;20181;-79
2023/04/07 08:00:22;;;;;;;1999.90;999.90;;;;;;;9.28;100.00;95171.91;5064169;28;20176;-79
2023/04/07 08:02:48;;;;;;;1999.90;999.90;;;;;;;9.29;100.00;95174.25;5064507;28;20223;-79
2023/04/07 08:05:13;;;;;;;1999.90;999.90;;;;;;;9.18;100.00;95172.78;5063676;28;20183;-79
2023/04/07 08:07:39;;;;;;;1999.90;999.90;;;;;;;9.33;100.00;95169.53;5063999;28;20174;-79
2023/04/07 08:10:05;;;;;;;1999.90;999.90;;;;;;;9.56;100.00;95171.72;5063776;28;20172;-79
2023/04/07 08:12:30;;;;;;;1999.90;999.90;;;;;;;9.65;100.00;95169.28;5064152;28;20208;-79
2023/04/07 08:14:55;;;;;;;1999.90;999.90;;;;;;;9.51;100.00;95169.44;5063746;28;20182;-79
2023/04/07 08:17:21;;;;;;;1999.90;999.90;;;;;;;9.57;100.00;95168.59;5063580;28;20178;-80
2023/04/07 08:19:46;;;;;;;1999.90;999.90;;;;;;;9.70;100.00;95166.91;5063574;28;20194;-79
2023/04/07 08:22:12;;;;;;;1999.90;999.90;;;;;;;9.71;100.00;95173.94;5063564;28;20179;-77
2023/04/07 08:24:37;;;;;;;1999.90;999.90;;;;;;;9.61;100.00;95163.88;5064069;28;20178;-79
2023/04/07 08:27:02;;;;;;;1999.90;999.90;;;;;;;9.59;100.00;95166.22;5063337;28;20177;-78
2023/04/07 08:29:28;;;;;;;1999.90;999.90;;;;;;;9.85;100.00;95159.41;5063513;28;20177;-77
2023/04/07 08:31:53;;;;;;;1999.90;999.90;;;;;;;10.10;100.00;95159.97;5063653;28;20183;-77
2023/04/07 08:34:20;;;;;;;1999.90;999.90;;;;;;;10.22;100.00;95158.66;5063859;28;20208;-76
2023/04/07 08:36:45;;;;;;;1999.90;999.90;;;;;;;10.44;100.00;95154.50;5063823;28;20181;-78
2023/04/07 08:39:11;;;;;;;1999.90;999.90;;;;;;;10.20;100.00;95153.59;5063705;28;20180;-77
2023/04/07 08:41:38;;;;;;;1999.90;999.90;;;;;;;10.45;100.00;95156.84;5063558;28;20236;-78
2023/04/07 08:44:05;;;;;;;1999.90;999.90;;;;;;;10.81;100.00;95157.94;5063838;28;20182;-75
2023/04/07 08:46:32;;;;;;;1999.90;999.90;;;;;;;10.74;100.00;95157.28;5063416;28;20227;-79
2023/04/07 08:48:59;;;;;;;1999.90;999.90;;;;;;;10.80;100.00;95150.94;5063202;28;20216;-77
2023/04/07 08:51:31;;;;;;;1999.90;999.90;;;;;;;10.83;100.00;95149.34;5063746;28;20178;-77
2023/04/07 08:54:08;;;;;;;1999.90;999.90;;;;;;;11.01;100.00;95147.16;5063371;28;20237;-78
2023/04/07 08:56:33;;;;;;;1999.90;999.90;;;;;;;11.53;100.00;95145.56;5063909;28;20181;-78
2023/04/07 08:59:01;;;;;;;1999.90;999.90;;;;;;;11.77;100.00;95149.91;5063169;28;20251;-77
2023/04/07 09:01:28;;;;;;;1999.90;999.90;;;;;;;11.71;100.00;95154.31;5063189;28;20200;-78
2023/04/07 09:03:57;;;;;;;1999.90;999.90;;;;;;;11.70;100.00;95158.22;5063128;28;20256;-77
2023/04/07 09:06:23;;;;;;;1999.90;999.90;;;;;;;11.83;100.00;95148.22;5063925;28;20182;-79
2023/04/07 09:08:48;;;;;;;1999.90;999.90;;;;;;;11.89;100.00;95152.03;5062787;28;20181;-78
2023/04/07 09:11:14;;;;;;;1999.90;999.90;;;;;;;12.29;100.00;95151.72;5064326;28;20241;-77
2023/04/07 09:13:39;;;;;;;1999.90;999.90;;;;;;;12.32;100.00;95150.84;5066855;28;20213;-78
2023/04/07 09:16:05;;;;;;;1999.90;999.90;;;;;;;12.98;100.00;95148.78;5066758;28;20185;-77
2023/04/07 09:18:31;;;;;;;1999.90;999.90;;;;;;;12.79;100.00;95146.78;5066842;28;20173;-78
2023/04/07 09:20:57;;;;;;;1999.90;999.90;;;;;;;12.65;100.00;95143.56;5067086;28;20180;-78
2023/04/07 09:23:34;;;;;;;1999.90;999.90;;;;;;;13.08;100.00;95147.00;5067155;28;20173;-79
2023/04/07 09:26:19;;;;;;;1999.90;999.90;;;;;;;13.06;100.00;95147.44;5067422;28;20181;-78
2023/04/07 09:28:46;;;;;;;1999.90;999.90;;;;;;;12.99;100.00;95149.53;5066630;28;20174;-78
2023/04/07 09:31:11;;;;;;;1999.90;999.90;;;;;;;12.76;98.95;95141.38;5066452;28;20214;-78
2023/04/07 09:33:38;;;;;;;1999.90;999.90;;;;;;;14.59;92.24;95137.75;5066907;28;20207;-78
2023/04/07 09:36:07;;;;;;;1999.90;999.90;;;;;;;14.36;86.36;95138.00;5066550;28;20170;-78
2023/04/07 09:38:35;;;;;;;1999.90;999.90;;;;;;;13.61;90.02;95138.31;5066699;28;20498;-78
2023/04/07 09:41:20;;;;;;;1999.90;999.90;;;;;;;14.02;87.38;95137.69;5066258;28;20197;-78
2023/04/07 09:43:45;;;;;;;1999.90;999.90;;;;;;;16.00;82.50;95127.50;5067111;28;20184;-78
2023/04/07 09:46:16;;;;;;;1999.90;999.90;;;;;;;17.09;73.77;95125.63;5067069;28;20170;-78
2023/04/07 09:48:43;;;;;;;1999.90;999.90;;;;;;;17.48;67.39;95130.47;5066228;28;20241;-78
2023/04/07 09:51:14;;;;;;;1999.90;999.90;;;;;;;17.48;67.39;95130.47;5066629;28;20196;-78
2023/04/07 09:53:44;;;;;;;1999.90;999.90;;;;;;;17.48;67.39;95130.47;5066259;28;20259;-78
2023/04/07 09:56:10;;;;;;;1999.90;999.90;;;;;;;17.48;67.39;95130.47;5066857;28;20216;-78
2023/04/07 09:58:38;;;;;;;1999.90;999.90;;;;;;;17.48;67.39;95130.47;5066091;28;20166;-78
2023/04/07 10:01:05;;;;;;;1999.90;999.90;;;;;;;17.48;67.39;95130.47;5066036;28;20241;-79
2023/04/07 10:03:32;;;;;;;1999.90;999.90;;;;;;;17.48;67.39;95130.47;5065956;28;20193;-79
2023/04/07 10:06:02;;;;;;;1999.90;999.90;;;;;;;17.48;67.39;95130.47;5066607;28;20241;-78
2023/04/07 10:08:31;;;;;;;1999.90;999.90;;;;;;;17.48;67.39;95130.47;5065792;28;20197;-79
2023/04/07 10:10:58;;;;;;;1999.90;999.90;;;;;;;17.48;67.39;95130.47;5065875;28;20245;-78
2023/04/07 10:13:24;;;;;;;1999.90;999.90;;;;;;;17.48;67.39;95130.47;5065761;28;20261;-80
2023/04/07 10:15:51;;;;;;;1999.90;999.90;;;;;;;19.99;50.33;95114.97;5065731;28;20250;-79
2023/04/07 10:18:19;;;;;;;1999.90;999.90;;;;;;;19.52;52.11;95112.13;5065616;28;20391;-79
2023/04/07 10:20:45;;;;;;;1999.90;999.90;;;;;;;19.56;51.24;95115.50;5065341;28;20174;-79
2023/04/07 10:23:27;;;;;;;1999.90;999.90;;;;;;;18.98;52.94;95112.25;5064019;28;20170;-79
2023/04/07 10:25:55;;;;;;;1999.90;999.90;;;;;;;19.45;52.65;95107.69;5065836;28;20181;-79
2023/04/07 10:28:23;;;;;;;1999.90;999.90;;;;;;;19.78;51.28;95107.72;5066019;28;20181;-79
2023/04/07 10:30:49;;;;;;;1999.90;999.90;;;;;;;18.74;53.76;95111.34;5065210;28;20225;-80
2023/04/07 10:33:15;;;;;;;1999.90;999.90;;;;;;;18.07;57.15;95111.44;5065074;28;20197;-78
2023/04/07 10:36:02;;;;;;;1999.90;999.90;;;;;;;18.67;56.47;95106.91;5065821;28;20244;-78
2023/04/07 10:38:28;;;;;;;1999.90;999.90;;;;;;;19.42;54.78;95107.88;5065557;28;20178;-78
2023/04/07 10:40:53;;;;;;;1999.90;999.90;;;;;;;19.48;52.28;95105.97;5065565;28;20349;-77
2023/04/07 10:43:40;;;;;;;1999.90;999.90;;;;;;;17.17;57.25;95124.13;5065192;28;20174;-77
2023/04/07 10:46:05;;;;;;;1999.90;999.90;;;;;;;16.51;62.37;95113.59;5065252;28;20240;-76
2023/04/07 10:48:34;;;;;;;1999.90;999.90;;;;;;;16.79;62.58;95112.59;5065121;28;20232;-77
2023/04/07 10:51:06;;;;;;;1999.90;999.90;;;;;;;16.14;66.08;95107.75;5065187;28;20182;-77
2023/04/07 10:53:31;;;;;;;1999.90;999.90;;;;;;;16.71;63.79;95111.31;5064885;28;20396;-77